Terminal Aerodrome Forecast
Issued by NWS Jackson, KY

Home | Current Version | Previous Version | Text Only | Print | Product List | Glossary On
Versions: 1 2 3 4 5 6 7 8 9 10 11 12 13 14 15 16 17 18 19 20 21 22
000
FTUS43 KJKL 281321 AAD
TAFJKL
TAF AMD
KJKL 281321Z 2813/2912 VRB03KT P6SM SCT001 BKN060
      TEMPO 2813/2814 3/4SM BR
     FM281600 24008G18KT P6SM VCTS BKN040CB OVC080
     FM282300 26006KT P6SM SCT200=

USA.gov is the U.S. government's official web portal to all federal, state and local government web resources and services.